sensor_id;sensor_type;location;lat;lon;timestamp;P1;durP1;ratioP1;P2;durP2;ratioP2
15608;SDS011;64278;45.642;13.756;2023-02-28T00:45:53;4.60;;;4.20;;
15608;SDS011;64278;45.642;13.756;2023-02-28T00:48:19;4.60;;;4.20;;
15608;SDS011;64278;45.642;13.756;2023-02-28T00:50:45;5.00;;;4.60;;
15608;SDS011;64278;45.642;13.756;2023-02-28T00:53:14;4.75;;;4.35;;
15608;SDS011;64278;45.642;13.756;2023-02-28T00:55:39;4.63;;;4.22;;
15608;SDS011;64278;45.642;13.756;2023-02-28T00:58:05;4.60;;;4.20;;
15608;SDS011;64278;45.642;13.756;2023-02-28T01:00:31;4.25;;;3.92;;
15608;SDS011;64278;45.642;13.756;2023-02-28T01:02:56;4.78;;;4.38;;
15608;SDS011;64278;45.642;13.756;2023-02-28T01:05:22;4.05;;;3.75;;
15608;SDS011;64278;45.642;13.756;2023-02-28T01:07:48;4.18;;;3.88;;
15608;SDS011;64278;45.642;13.756;2023-02-28T01:10:13;4.43;;;4.03;;
15608;SDS011;64278;45.642;13.756;2023-02-28T01:12:39;4.15;;;3.85;;
15608;SDS011;64278;45.642;13.756;2023-02-28T01:15:05;5.25;;;4.75;;
15608;SDS011;64278;45.642;13.756;2023-02-28T01:17:31;4.15;;;3.85;;
15608;SDS011;64278;45.642;13.756;2023-02-28T01:19:56;4.07;;;3.78;;
15608;SDS011;64278;45.642;13.756;2023-02-28T01:22:22;4.60;;;4.20;;
15608;SDS011;64278;45.642;13.756;2023-02-28T01:24:48;4.00;;;3.70;;
15608;SDS011;64278;45.642;13.756;2023-02-28T01:27:13;4.60;;;4.20;;
15608;SDS011;64278;45.642;13.756;2023-02-28T01:29:39;4.35;;;3.95;;
15608;SDS011;64278;45.642;13.756;2023-02-28T01:32:05;4.20;;;3.90;;
15608;SDS011;64278;45.642;13.756;2023-02-28T01:34:30;4.40;;;4.00;;
15608;SDS011;64278;45.642;13.756;2023-02-28T01:36:56;4.70;;;4.30;;
15608;SDS011;64278;45.642;13.756;2023-02-28T01:39:23;3.70;;;3.42;;
15608;SDS011;64278;45.642;13.756;2023-02-28T01:41:50;4.65;;;4.22;;
15608;SDS011;64278;45.642;13.756;2023-02-28T01:47:18;4.55;;;4.18;;
15608;SDS011;64278;45.642;13.756;2023-02-28T01:49:44;4.22;;;3.92;;
15608;SDS011;64278;45.642;13.756;2023-02-28T01:52:10;4.30;;;3.92;;
15608;SDS011;64278;45.642;13.756;2023-02-28T01:54:43;4.07;;;3.67;;
15608;SDS011;64278;45.642;13.756;2023-02-28T01:57:16;3.88;;;3.58;;
15608;SDS011;64278;45.642;13.756;2023-02-28T02:02:15;4.60;;;4.20;;
15608;SDS011;64278;45.642;13.756;2023-02-28T02:04:53;4.22;;;3.85;;
15608;SDS011;64278;45.642;13.756;2023-02-28T02:07:21;4.47;;;4.18;;
15608;SDS011;64278;45.642;13.756;2023-02-28T02:09:50;3.75;;;3.45;;
15608;SDS011;64278;45.642;13.756;2023-02-28T02:12:26;4.28;;;3.97;;
15608;SDS011;64278;45.642;13.756;2023-02-28T02:17:42;3.78;;;3.47;;
15608;SDS011;64278;45.642;13.756;2023-02-28T02:31:06;4.45;;;4.05;;
15608;SDS011;64278;45.642;13.756;2023-02-28T02:43:46;4.07;;;3.72;;
15608;SDS011;64278;45.642;13.756;2023-02-28T02:46:29;3.70;;;3.40;;
15608;SDS011;64278;45.642;13.756;2023-02-28T02:49:04;3.90;;;3.60;;
15608;SDS011;64278;45.642;13.756;2023-02-28T02:51:34;4.43;;;4.07;;
15608;SDS011;64278;45.642;13.756;2023-02-28T02:54:12;4.05;;;3.75;;
15608;SDS011;64278;45.642;13.756;2023-02-28T02:56:53;3.90;;;3.55;;
15608;SDS011;64278;45.642;13.756;2023-02-28T02:59:24;3.83;;;3.53;;
15608;SDS011;64278;45.642;13.756;2023-02-28T03:01:55;3.85;;;3.55;;
15608;SDS011;64278;45.642;13.756;2023-02-28T03:04:30;3.90;;;3.60;;
15608;SDS011;64278;45.642;13.756;2023-02-28T03:07:00;3.67;;;3.40;;
15608;SDS011;64278;45.642;13.756;2023-02-28T03:09:26;3.72;;;3.47;;
15608;SDS011;64278;45.642;13.756;2023-02-28T03:11:52;4.07;;;3.78;;
15608;SDS011;64278;45.642;13.756;2023-02-28T03:14:24;3.78;;;3.47;;
15608;SDS011;64278;45.642;13.756;2023-02-28T03:17:03;6.60;;;3.60;;
15608;SDS011;64278;45.642;13.756;2023-02-28T03:20:01;3.60;;;3.40;;
15608;SDS011;64278;45.642;13.756;2023-02-28T03:22:45;4.25;;;3.85;;
15608;SDS011;64278;45.642;13.756;2023-02-28T03:25:38;3.63;;;3.33;;
15608;SDS011;64278;45.642;13.756;2023-02-28T03:28:31;3.97;;;3.60;;
15608;SDS011;64278;45.642;13.756;2023-02-28T03:33:55;4.03;;;3.65;;
15608;SDS011;64278;45.642;13.756;2023-02-28T03:36:32;3.72;;;3.42;;
15608;SDS011;64278;45.642;13.756;2023-02-28T03:39:19;3.92;;;3.60;;
15608;SDS011;64278;45.642;13.756;2023-02-28T03:41:51;3.25;;;3.05;;
15608;SDS011;64278;45.642;13.756;2023-02-28T03:47:21;3.42;;;3.15;;
15608;SDS011;64278;45.642;13.756;2023-02-28T03:49:57;3.42;;;3.13;;
15608;SDS011;64278;45.642;13.756;2023-02-28T03:52:32;3.50;;;3.20;;
15608;SDS011;64278;45.642;13.756;2023-02-28T03:55:06;3.33;;;3.03;;
15608;SDS011;64278;45.642;13.756;2023-02-28T04:00:25;4.00;;;3.70;;
15608;SDS011;64278;45.642;13.756;2023-02-28T04:02:54;3.85;;;3.55;;
15608;SDS011;64278;45.642;13.756;2023-02-28T04:05:20;3.63;;;3.33;;
15608;SDS011;64278;45.642;13.756;2023-02-28T04:07:46;3.25;;;2.97;;
15608;SDS011;64278;45.642;13.756;2023-02-28T04:10:13;2.92;;;2.72;;
15608;SDS011;64278;45.642;13.756;2023-02-28T04:12:39;3.05;;;2.75;;
15608;SDS011;64278;45.642;13.756;2023-02-28T04:15:05;3.40;;;3.10;;
15608;SDS011;64278;45.642;13.756;2023-02-28T04:17:31;3.50;;;3.20;;
15608;SDS011;64278;45.642;13.756;2023-02-28T04:19:57;3.15;;;2.90;;
15608;SDS011;64278;45.642;13.756;2023-02-28T04:22:22;3.35;;;3.05;;
15608;SDS011;64278;45.642;13.756;2023-02-28T04:24:51;3.28;;;3.00;;
15608;SDS011;64278;45.642;13.756;2023-02-28T04:27:19;3.55;;;3.33;;
15608;SDS011;64278;45.642;13.756;2023-02-28T04:29:45;3.17;;;2.97;;
15608;SDS011;64278;45.642;13.756;2023-02-28T04:32:11;3.70;;;3.40;;
15608;SDS011;64278;45.642;13.756;2023-02-28T04:34:37;3.33;;;3.13;;
15608;SDS011;64278;45.642;13.756;2023-02-28T04:37:03;3.75;;;3.33;;
15608;SDS011;64278;45.642;13.756;2023-02-28T04:39:28;3.10;;;2.90;;
15608;SDS011;64278;45.642;13.756;2023-02-28T04:41:54;3.22;;;3.03;;
15608;SDS011;64278;45.642;13.756;2023-02-28T04:44:20;3.45;;;3.15;;
15608;SDS011;64278;45.642;13.756;2023-02-28T04:46:47;3.42;;;3.20;;
15608;SDS011;64278;45.642;13.756;2023-02-28T04:49:13;3.28;;;2.97;;
15608;SDS011;64278;45.642;13.756;2023-02-28T04:51:40;3.35;;;3.05;;
15608;SDS011;64278;45.642;13.756;2023-02-28T04:54:06;3.53;;;3.28;;
15608;SDS011;64278;45.642;13.756;2023-02-28T04:56:32;3.03;;;2.58;;
15608;SDS011;64278;45.642;13.756;2023-02-28T04:58:58;2.95;;;2.75;;
15608;SDS011;64278;45.642;13.756;2023-02-28T05:03:55;3.25;;;2.95;;
15608;SDS011;64278;45.642;13.756;2023-02-28T05:06:23;3.08;;;2.88;;
15608;SDS011;64278;45.642;13.756;2023-02-28T05:08:49;3.00;;;2.80;;
15608;SDS011;64278;45.642;13.756;2023-02-28T05:11:17;2.95;;;2.75;;
15608;SDS011;64278;45.642;13.756;2023-02-28T05:13:48;3.05;;;2.78;;
15608;SDS011;64278;45.642;13.756;2023-02-28T05:16:14;3.13;;;2.85;;
15608;SDS011;64278;45.642;13.756;2023-02-28T05:18:40;2.78;;;2.58;;
15608;SDS011;64278;45.642;13.756;2023-02-28T05:21:06;3.20;;;2.95;;
15608;SDS011;64278;45.642;13.756;2023-02-28T05:23:51;3.03;;;2.83;;
15608;SDS011;64278;45.642;13.756;2023-02-28T05:26:17;3.08;;;2.88;;
15608;SDS011;64278;45.642;13.756;2023-02-28T05:28:44;2.65;;;2.45;;
15608;SDS011;64278;45.642;13.756;2023-02-28T05:31:12;2.95;;;2.75;;
15608;SDS011;64278;45.642;13.756;2023-02-28T05:33:39;3.33;;;3.03;;
15608;SDS011;64278;45.642;13.756;2023-02-28T05:36:05;3.03;;;2.75;;
15608;SDS011;64278;45.642;13.756;2023-02-28T05:38:31;3.20;;;2.90;;
15608;SDS011;64278;45.642;13.756;2023-02-28T05:40:57;2.78;;;2.58;;
15608;SDS011;64278;45.642;13.756;2023-02-28T05:43:22;2.80;;;2.53;;
15608;SDS011;64278;45.642;13.756;2023-02-28T05:45:48;2.95;;;2.75;;
15608;SDS011;64278;45.642;13.756;2023-02-28T05:48:14;2.90;;;2.70;;
15608;SDS011;64278;45.642;13.756;2023-02-28T05:50:40;2.78;;;2.58;;
15608;SDS011;64278;45.642;13.756;2023-02-28T05:53:07;3.03;;;2.83;;
15608;SDS011;64278;45.642;13.756;2023-02-28T05:55:33;2.67;;;2.53;;
15608;SDS011;64278;45.642;13.756;2023-02-28T05:58:00;3.10;;;2.80;;
15608;SDS011;64278;45.642;13.756;2023-02-28T06:00:26;3.20;;;2.83;;
15608;SDS011;64278;45.642;13.756;2023-02-28T06:02:52;2.90;;;2.70;;
15608;SDS011;64278;45.642;13.756;2023-02-28T06:05:21;3.75;;;3.00;;
15608;SDS011;64278;45.642;13.756;2023-02-28T06:07:47;2.97;;;2.78;;
15608;SDS011;64278;45.642;13.756;2023-02-28T06:10:13;2.90;;;2.70;;
15608;SDS011;64278;45.642;13.756;2023-02-28T06:12:39;2.90;;;2.67;;
15608;SDS011;64278;45.642;13.756;2023-02-28T06:15:06;2.60;;;2.40;;
15608;SDS011;64278;45.642;13.756;2023-02-28T06:17:36;2.63;;;2.42;;
15608;SDS011;64278;45.642;13.756;2023-02-28T06:20:02;2.80;;;2.60;;
15608;SDS011;64278;45.642;13.756;2023-02-28T06:22:28;2.55;;;2.35;;
15608;SDS011;64278;45.642;13.756;2023-02-28T06:24:53;2.88;;;2.67;;
15608;SDS011;64278;45.642;13.756;2023-02-28T06:27:20;2.92;;;2.72;;
15608;SDS011;64278;45.642;13.756;2023-02-28T06:29:45;3.10;;;2.90;;
15608;SDS011;64278;45.642;13.756;2023-02-28T06:32:11;3.28;;;2.97;;
15608;SDS011;64278;45.642;13.756;2023-02-28T06:34:36;3.00;;;2.33;;
15608;SDS011;64278;45.642;13.756;2023-02-28T06:37:02;2.47;;;2.30;;
15608;SDS011;64278;45.642;13.756;2023-02-28T06:39:28;3.13;;;2.42;;
15608;SDS011;64278;45.642;13.756;2023-02-28T06:41:54;2.83;;;2.63;;
15608;SDS011;64278;45.642;13.756;2023-02-28T06:44:20;2.78;;;2.40;;
15608;SDS011;64278;45.642;13.756;2023-02-28T06:46:47;2.97;;;2.67;;
15608;SDS011;64278;45.642;13.756;2023-02-28T06:49:14;4.00;;;2.50;;
15608;SDS011;64278;45.642;13.756;2023-02-28T06:51:41;6.93;;;3.13;;
15608;SDS011;64278;45.642;13.756;2023-02-28T06:54:10;4.55;;;3.03;;
15608;SDS011;64278;45.642;13.756;2023-02-28T06:56:36;4.80;;;3.30;;
15608;SDS011;64278;45.642;13.756;2023-02-28T06:59:02;3.60;;;2.70;;
15608;SDS011;64278;45.642;13.756;2023-02-28T07:01:28;3.97;;;2.83;;
15608;SDS011;64278;45.642;13.756;2023-02-28T07:03:54;3.67;;;2.90;;
15608;SDS011;64278;45.642;13.756;2023-02-28T07:06:23;5.72;;;3.03;;
15608;SDS011;64278;45.642;13.756;2023-02-28T07:08:50;7.03;;;3.13;;
15608;SDS011;64278;45.642;13.756;2023-02-28T07:11:17;5.47;;;2.75;;
15608;SDS011;64278;45.642;13.756;2023-02-28T07:13:43;6.13;;;3.40;;
15608;SDS011;64278;45.642;13.756;2023-02-28T07:16:09;4.65;;;3.03;;
15608;SDS011;64278;45.642;13.756;2023-02-28T07:18:36;5.65;;;3.20;;
15608;SDS011;64278;45.642;13.756;2023-02-28T07:21:03;4.65;;;2.88;;
15608;SDS011;64278;45.642;13.756;2023-02-28T07:23:30;3.72;;;2.33;;
15608;SDS011;64278;45.642;13.756;2023-02-28T07:25:56;4.15;;;2.45;;
15608;SDS011;64278;45.642;13.756;2023-02-28T07:28:22;3.58;;;2.90;;
15608;SDS011;64278;45.642;13.756;2023-02-28T07:30:48;3.42;;;2.70;;
15608;SDS011;64278;45.642;13.756;2023-02-28T07:33:14;2.60;;;2.40;;
15608;SDS011;64278;45.642;13.756;2023-02-28T07:35:40;6.00;;;3.05;;
15608;SDS011;64278;45.642;13.756;2023-02-28T07:38:05;3.33;;;2.63;;
15608;SDS011;64278;45.642;13.756;2023-02-28T07:40:32;3.55;;;2.85;;
15608;SDS011;64278;45.642;13.756;2023-02-28T07:42:59;3.05;;;2.75;;
15608;SDS011;64278;45.642;13.756;2023-02-28T07:45:26;5.00;;;3.05;;
15608;SDS011;64278;45.642;13.756;2023-02-28T07:47:53;4.70;;;3.10;;
15608;SDS011;64278;45.642;13.756;2023-02-28T07:50:20;3.20;;;3.00;;
15608;SDS011;64278;45.642;13.756;2023-02-28T07:52:46;3.20;;;2.90;;
15608;SDS011;64278;45.642;13.756;2023-02-28T07:55:11;3.45;;;2.72;;
15608;SDS011;64278;45.642;13.756;2023-02-28T07:57:38;4.22;;;2.92;;
15608;SDS011;64278;45.642;13.756;2023-02-28T08:00:05;3.63;;;3.33;;
15608;SDS011;64278;45.642;13.756;2023-02-28T08:02:34;3.67;;;3.00;;
15608;SDS011;64278;45.642;13.756;2023-02-28T08:05:00;3.70;;;3.13;;
15608;SDS011;64278;45.642;13.756;2023-02-28T08:07:26;3.75;;;3.40;;
15608;SDS011;64278;45.642;13.756;2023-02-28T08:09:51;4.43;;;3.00;;
15608;SDS011;64278;45.642;13.756;2023-02-28T08:12:17;3.75;;;2.80;;
15608;SDS011;64278;45.642;13.756;2023-02-28T08:14:43;3.83;;;2.78;;
15608;SDS011;64278;45.642;13.756;2023-02-28T08:17:09;4.30;;;3.13;;
15608;SDS011;64278;45.642;13.756;2023-02-28T08:19:35;4.82;;;2.80;;
15608;SDS011;64278;45.642;13.756;2023-02-28T08:22:01;6.10;;;4.18;;
15608;SDS011;64278;45.642;13.756;2023-02-28T08:24:27;3.88;;;3.30;;
15608;SDS011;64278;45.642;13.756;2023-02-28T08:26:52;6.05;;;3.30;;
15608;SDS011;64278;45.642;13.756;2023-02-28T08:29:18;4.15;;;3.25;;
15608;SDS011;64278;45.642;13.756;2023-02-28T08:31:44;3.65;;;3.03;;
15608;SDS011;64278;45.642;13.756;2023-02-28T08:34:10;6.18;;;3.40;;
15608;SDS011;64278;45.642;13.756;2023-02-28T08:36:38;5.30;;;3.13;;
15608;SDS011;64278;45.642;13.756;2023-02-28T08:39:04;3.55;;;3.25;;
15608;SDS011;64278;45.642;13.756;2023-02-28T08:41:30;4.50;;;2.83;;
15608;SDS011;64278;45.642;13.756;2023-02-28T08:43:56;2.95;;;2.67;;
15608;SDS011;64278;45.642;13.756;2023-02-28T08:46:22;5.20;;;3.03;;
15608;SDS011;64278;45.642;13.756;2023-02-28T08:48:51;4.60;;;3.13;;
15608;SDS011;64278;45.642;13.756;2023-02-28T08:51:18;3.30;;;2.50;;
15608;SDS011;64278;45.642;13.756;2023-02-28T08:53:51;3.85;;;2.50;;
15608;SDS011;64278;45.642;13.756;2023-02-28T08:56:17;4.63;;;3.10;;
15608;SDS011;64278;45.642;13.756;2023-02-28T08:58:44;3.60;;;2.90;;
15608;SDS011;64278;45.642;13.756;2023-02-28T09:01:14;4.72;;;2.90;;
15608;SDS011;64278;45.642;13.756;2023-02-28T09:03:45;4.25;;;2.40;;
15608;SDS011;64278;45.642;13.756;2023-02-28T09:06:13;5.20;;;3.17;;
15608;SDS011;64278;45.642;13.756;2023-02-28T09:08:39;2.95;;;2.67;;
15608;SDS011;64278;45.642;13.756;2023-02-28T09:11:05;3.35;;;2.58;;
15608;SDS011;64278;45.642;13.756;2023-02-28T09:13:31;3.45;;;2.60;;
15608;SDS011;64278;45.642;13.756;2023-02-28T09:15:58;3.45;;;2.60;;
15608;SDS011;64278;45.642;13.756;2023-02-28T09:18:25;3.25;;;2.28;;
15608;SDS011;64278;45.642;13.756;2023-02-28T09:20:51;2.85;;;2.47;;
15608;SDS011;64278;45.642;13.756;2023-02-28T09:23:18;4.18;;;3.08;;
15608;SDS011;64278;45.642;13.756;2023-02-28T09:25:49;2.53;;;2.33;;
15608;SDS011;64278;45.642;13.756;2023-02-28T09:28:16;3.53;;;2.72;;
15608;SDS011;64278;45.642;13.756;2023-02-28T09:30:44;2.53;;;2.33;;
15608;SDS011;64278;45.642;13.756;2023-02-28T09:33:11;6.20;;;2.90;;
15608;SDS011;64278;45.642;13.756;2023-02-28T09:35:37;3.50;;;3.17;;
15608;SDS011;64278;45.642;13.756;2023-02-28T09:38:03;3.25;;;2.40;;
15608;SDS011;64278;45.642;13.756;2023-02-28T09:40:29;2.90;;;2.60;;
15608;SDS011;64278;45.642;13.756;2023-02-28T09:42:56;3.08;;;2.78;;
15608;SDS011;64278;45.642;13.756;2023-02-28T09:48:03;2.60;;;2.40;;
15608;SDS011;64278;45.642;13.756;2023-02-28T09:50:36;3.38;;;2.28;;
15608;SDS011;64278;45.642;13.756;2023-02-28T09:55:56;3.05;;;2.33;;
15608;SDS011;64278;45.642;13.756;2023-02-28T10:01:42;2.33;;;2.10;;
15608;SDS011;64278;45.642;13.756;2023-02-28T10:07:14;2.70;;;2.50;;
15608;SDS011;64278;45.642;13.756;2023-02-28T10:10:02;2.75;;;2.30;;
15608;SDS011;64278;45.642;13.756;2023-02-28T10:12:39;2.92;;;2.63;;
15608;SDS011;64278;45.642;13.756;2023-02-28T10:15:13;2.55;;;2.35;;
15608;SDS011;64278;45.642;13.756;2023-02-28T10:17:40;2.60;;;2.40;;
15608;SDS011;64278;45.642;13.756;2023-02-28T10:20:17;2.55;;;2.33;;
15608;SDS011;64278;45.642;13.756;2023-02-28T10:25:19;1.92;;;1.83;;
15608;SDS011;64278;45.642;13.756;2023-02-28T10:27:50;2.55;;;2.35;;
15608;SDS011;64278;45.642;13.756;2023-02-28T10:30:19;4.22;;;2.60;;
15608;SDS011;64278;45.642;13.756;2023-02-28T10:32:47;2.20;;;2.00;;
15608;SDS011;64278;45.642;13.756;2023-02-28T10:35:16;2.13;;;1.92;;
15608;SDS011;64278;45.642;13.756;2023-02-28T10:37:53;2.22;;;2.00;;
15608;SDS011;64278;45.642;13.756;2023-02-28T10:42:54;2.35;;;2.15;;
15608;SDS011;64278;45.642;13.756;2023-02-28T10:45:21;2.28;;;2.03;;
15608;SDS011;64278;45.642;13.756;2023-02-28T10:47:53;2.33;;;2.13;;
15608;SDS011;64278;45.642;13.756;2023-02-28T10:52:53;2.20;;;2.00;;
15608;SDS011;64278;45.642;13.756;2023-02-28T10:57:48;2.20;;;2.00;;
15608;SDS011;64278;45.642;13.756;2023-02-28T11:02:44;2.67;;;2.35;;
15608;SDS011;64278;45.642;13.756;2023-02-28T11:07:52;2.88;;;2.20;;
15608;SDS011;64278;45.642;13.756;2023-02-28T11:10:28;2.35;;;2.10;;
15608;SDS011;64278;45.642;13.756;2023-02-28T11:12:59;2.40;;;2.20;;
15608;SDS011;64278;45.642;13.756;2023-02-28T11:17:57;2.05;;;1.95;;
15608;SDS011;64278;45.642;13.756;2023-02-28T11:20:42;2.75;;;2.22;;
15608;SDS011;64278;45.642;13.756;2023-02-28T11:23:14;2.63;;;2.25;;
15608;SDS011;64278;45.642;13.756;2023-02-28T11:25:45;2.53;;;2.33;;
15608;SDS011;64278;45.642;13.756;2023-02-28T11:28:35;2.63;;;2.28;;
15608;SDS011;64278;45.642;13.756;2023-02-28T11:33:44;2.30;;;2.15;;
15608;SDS011;64278;45.642;13.756;2023-02-28T11:38:41;3.63;;;2.50;;
15608;SDS011;64278;45.642;13.756;2023-02-28T11:46:33;2.97;;;2.67;;
15608;SDS011;64278;45.642;13.756;2023-02-28T11:51:53;2.53;;;2.33;;
15608;SDS011;64278;45.642;13.756;2023-02-28T11:54:46;3.17;;;2.58;;
15608;SDS011;64278;45.642;13.756;2023-02-28T12:03:11;3.20;;;2.95;;
15608;SDS011;64278;45.642;13.756;2023-02-28T12:06:18;4.25;;;2.95;;
15608;SDS011;64278;45.642;13.756;2023-02-28T12:09:30;3.65;;;3.15;;
15608;SDS011;64278;45.642;13.756;2023-02-28T12:11:59;4.20;;;3.00;;
15608;SDS011;64278;45.642;13.756;2023-02-28T12:22:58;4.28;;;2.75;;
15608;SDS011;64278;45.642;13.756;2023-02-28T12:27:53;2.90;;;2.70;;
15608;SDS011;64278;45.642;13.756;2023-02-28T13:22:58;3.67;;;3.35;;
15608;SDS011;64278;45.642;13.756;2023-02-28T13:28:11;4.22;;;3.30;;
15608;SDS011;64278;45.642;13.756;2023-02-28T13:44:04;5.45;;;3.90;;
15608;SDS011;64278;45.642;13.756;2023-02-28T13:51:54;5.05;;;3.75;;
15608;SDS011;64278;45.642;13.756;2023-02-28T14:11:25;4.60;;;4.20;;
15608;SDS011;64278;45.642;13.756;2023-02-28T14:13:54;7.35;;;4.43;;
15608;SDS011;64278;45.642;13.756;2023-02-28T14:16:20;5.38;;;4.88;;
15608;SDS011;64278;45.642;13.756;2023-02-28T14:18:55;4.75;;;4.32;;
15608;SDS011;64278;45.642;13.756;2023-02-28T14:21:25;5.10;;;4.72;;
15608;SDS011;64278;45.642;13.756;2023-02-28T14:32:10;5.65;;;4.95;;
15608;SDS011;64278;45.642;13.756;2023-02-28T14:37:32;5.55;;;5.05;;
15608;SDS011;64278;45.642;13.756;2023-02-28T14:40:02;6.05;;;5.30;;
15608;SDS011;64278;45.642;13.756;2023-02-28T14:44:59;5.70;;;5.20;;
15608;SDS011;64278;45.642;13.756;2023-02-28T14:47:27;6.28;;;5.68;;
15608;SDS011;64278;45.642;13.756;2023-02-28T14:49:57;5.60;;;5.10;;
15608;SDS011;64278;45.642;13.756;2023-02-28T14:52:26;6.20;;;5.70;;
15608;SDS011;64278;45.642;13.756;2023-02-28T14:54:55;5.75;;;5.25;;
15608;SDS011;64278;45.642;13.756;2023-02-28T14:57:44;5.57;;;5.07;;
15608;SDS011;64278;45.642;13.756;2023-02-28T15:00:26;5.75;;;5.25;;
15608;SDS011;64278;45.642;13.756;2023-02-28T15:02:55;5.47;;;4.97;;
15608;SDS011;64278;45.642;13.756;2023-02-28T15:08:00;5.78;;;5.28;;
15608;SDS011;64278;45.642;13.756;2023-02-28T15:13:22;5.70;;;5.20;;
15608;SDS011;64278;45.642;13.756;2023-02-28T15:15:56;6.45;;;5.95;;
15608;SDS011;64278;45.642;13.756;2023-02-28T15:18:26;5.43;;;4.93;;
15608;SDS011;64278;45.642;13.756;2023-02-28T15:21:04;8.13;;;5.47;;
15608;SDS011;64278;45.642;13.756;2023-02-28T15:23:38;7.32;;;5.63;;
15608;SDS011;64278;45.642;13.756;2023-02-28T15:26:09;6.00;;;5.45;;
15608;SDS011;64278;45.642;13.756;2023-02-28T15:28:39;6.97;;;6.22;;
15608;SDS011;64278;45.642;13.756;2023-02-28T15:31:17;6.32;;;5.72;;
15608;SDS011;64278;45.642;13.756;2023-02-28T15:33:57;7.78;;;6.47;;
15608;SDS011;64278;45.642;13.756;2023-02-28T15:36:28;7.65;;;6.90;;
15608;SDS011;64278;45.642;13.756;2023-02-28T15:38:59;6.65;;;6.15;;
15608;SDS011;64278;45.642;13.756;2023-02-28T15:41:26;8.27;;;6.75;;
15608;SDS011;64278;45.642;13.756;2023-02-28T15:46:41;7.35;;;6.75;;
15608;SDS011;64278;45.642;13.756;2023-02-28T15:49:19;7.53;;;6.78;;
15608;SDS011;64278;45.642;13.756;2023-02-28T15:51:48;7.15;;;6.47;;
15608;SDS011;64278;45.642;13.756;2023-02-28T15:54:20;7.00;;;6.18;;
15608;SDS011;64278;45.642;13.756;2023-02-28T15:56:56;8.32;;;7.53;;
15608;SDS011;64278;45.642;13.756;2023-02-28T15:59:27;7.18;;;6.50;;
15608;SDS011;64278;45.642;13.756;2023-02-28T16:07:27;6.97;;;6.38;;
15608;SDS011;64278;45.642;13.756;2023-02-28T16:09:53;6.88;;;6.20;;
15608;SDS011;64278;45.642;13.756;2023-02-28T16:12:20;6.45;;;5.82;;
15608;SDS011;64278;45.642;13.756;2023-02-28T16:14:49;7.03;;;6.20;;
15608;SDS011;64278;45.642;13.756;2023-02-28T16:17:21;8.10;;;7.32;;
15608;SDS011;64278;45.642;13.756;2023-02-28T16:19:49;6.60;;;6.00;;
15608;SDS011;64278;45.642;13.756;2023-02-28T16:22:15;6.25;;;5.57;;
15608;SDS011;64278;45.642;13.756;2023-02-28T16:24:41;7.82;;;7.13;;
15608;SDS011;64278;45.642;13.756;2023-02-28T16:27:07;7.13;;;6.38;;
15608;SDS011;64278;45.642;13.756;2023-02-28T16:29:41;6.43;;;5.82;;
15608;SDS011;64278;45.642;13.756;2023-02-28T16:32:07;7.28;;;6.57;;
15608;SDS011;64278;45.642;13.756;2023-02-28T16:34:33;6.88;;;6.28;;
15608;SDS011;64278;45.642;13.756;2023-02-28T16:36:58;6.68;;;5.90;;
15608;SDS011;64278;45.642;13.756;2023-02-28T16:39:24;6.53;;;5.95;;
15608;SDS011;64278;45.642;13.756;2023-02-28T16:41:50;7.47;;;6.82;;
15608;SDS011;64278;45.642;13.756;2023-02-28T16:44:29;6.80;;;6.22;;
15608;SDS011;64278;45.642;13.756;2023-02-28T16:47:01;7.40;;;6.80;;
15608;SDS011;64278;45.642;13.756;2023-02-28T16:49:28;7.00;;;6.43;;
15608;SDS011;64278;45.642;13.756;2023-02-28T16:51:55;8.15;;;7.15;;
15608;SDS011;64278;45.642;13.756;2023-02-28T16:54:20;6.55;;;5.97;;
15608;SDS011;64278;45.642;13.756;2023-02-28T16:56:47;7.85;;;7.07;;
15608;SDS011;64278;45.642;13.756;2023-02-28T16:59:14;7.38;;;6.68;;
15608;SDS011;64278;45.642;13.756;2023-02-28T17:01:48;7.35;;;6.65;;
15608;SDS011;64278;45.642;13.756;2023-02-28T17:04:14;7.35;;;6.65;;
15608;SDS011;64278;45.642;13.756;2023-02-28T17:06:40;7.50;;;6.78;;
15608;SDS011;64278;45.642;13.756;2023-02-28T17:09:08;7.80;;;6.47;;
15608;SDS011;64278;45.642;13.756;2023-02-28T17:11:43;6.85;;;6.25;;
15608;SDS011;64278;45.642;13.756;2023-02-28T17:14:09;7.35;;;6.65;;
15608;SDS011;64278;45.642;13.756;2023-02-28T17:16:35;8.30;;;6.45;;
15608;SDS011;64278;45.642;13.756;2023-02-28T17:19:09;7.28;;;6.57;;
15608;SDS011;64278;45.642;13.756;2023-02-28T17:21:37;7.22;;;6.60;;
15608;SDS011;64278;45.642;13.756;2023-02-28T17:24:04;7.28;;;6.57;;
15608;SDS011;64278;45.642;13.756;2023-02-28T17:26:30;9.75;;;7.70;;
15608;SDS011;64278;45.642;13.756;2023-02-28T17:28:56;7.38;;;6.63;;
15608;SDS011;64278;45.642;13.756;2023-02-28T17:31:23;7.65;;;6.80;;
15608;SDS011;64278;45.642;13.756;2023-02-28T17:33:49;6.97;;;6.40;;
15608;SDS011;64278;45.642;13.756;2023-02-28T17:36:16;7.40;;;6.70;;
15608;SDS011;64278;45.642;13.756;2023-02-28T17:38:50;7.28;;;6.68;;
15608;SDS011;64278;45.642;13.756;2023-02-28T17:41:16;7.65;;;6.93;;
15608;SDS011;64278;45.642;13.756;2023-02-28T17:43:42;8.02;;;7.20;;
15608;SDS011;64278;45.642;13.756;2023-02-28T17:46:11;9.20;;;7.53;;
15608;SDS011;64278;45.642;13.756;2023-02-28T17:48:43;6.57;;;6.07;;
15608;SDS011;64278;45.642;13.756;2023-02-28T17:51:10;7.70;;;7.10;;
15608;SDS011;64278;45.642;13.756;2023-02-28T17:53:38;7.70;;;7.00;;
15608;SDS011;64278;45.642;13.756;2023-02-28T17:56:03;7.35;;;6.65;;
15608;SDS011;64278;45.642;13.756;2023-02-28T17:58:29;7.88;;;7.07;;
15608;SDS011;64278;45.642;13.756;2023-02-28T18:00:56;7.70;;;7.03;;
15608;SDS011;64278;45.642;13.756;2023-02-28T18:03:21;7.00;;;6.30;;
15608;SDS011;64278;45.642;13.756;2023-02-28T18:05:49;6.95;;;6.28;;
15608;SDS011;64278;45.642;13.756;2023-02-28T18:08:15;7.88;;;7.18;;
15608;SDS011;64278;45.642;13.756;2023-02-28T18:10:41;7.28;;;6.60;;
15608;SDS011;64278;45.642;13.756;2023-02-28T18:13:06;6.70;;;6.10;;
15608;SDS011;64278;45.642;13.756;2023-02-28T18:15:32;6.60;;;5.90;;
15608;SDS011;64278;45.642;13.756;2023-02-28T18:17:58;7.20;;;6.57;;
15608;SDS011;64278;45.642;13.756;2023-02-28T18:20:24;7.43;;;6.70;;
15608;SDS011;64278;45.642;13.756;2023-02-28T18:22:53;7.18;;;6.50;;
15608;SDS011;64278;45.642;13.756;2023-02-28T18:25:18;7.30;;;6.57;;
15608;SDS011;64278;45.642;13.756;2023-02-28T18:27:44;7.47;;;6.78;;
15608;SDS011;64278;45.642;13.756;2023-02-28T18:30:27;8.00;;;7.35;;
15608;SDS011;64278;45.642;13.756;2023-02-28T18:32:56;6.60;;;6.10;;
15608;SDS011;64278;45.642;13.756;2023-02-28T18:35:23;7.43;;;6.75;;
15608;SDS011;64278;45.642;13.756;2023-02-28T18:38:05;6.88;;;6.22;;
15608;SDS011;64278;45.642;13.756;2023-02-28T18:40:39;6.95;;;6.45;;
15608;SDS011;64278;45.642;13.756;2023-02-28T18:43:06;6.72;;;6.13;;
15608;SDS011;64278;45.642;13.756;2023-02-28T18:45:36;6.65;;;6.03;;
15608;SDS011;64278;45.642;13.756;2023-02-28T18:48:03;6.90;;;6.40;;
15608;SDS011;64278;45.642;13.756;2023-02-28T18:50:29;7.15;;;6.45;;
15608;SDS011;64278;45.642;13.756;2023-02-28T18:52:55;6.70;;;6.07;;
15608;SDS011;64278;45.642;13.756;2023-02-28T18:55:23;7.05;;;6.45;;
15608;SDS011;64278;45.642;13.756;2023-02-28T18:57:51;6.60;;;6.03;;
15608;SDS011;64278;45.642;13.756;2023-02-28T19:00:18;6.88;;;6.28;;
15608;SDS011;64278;45.642;13.756;2023-02-28T19:02:46;6.75;;;6.25;;
15608;SDS011;64278;45.642;13.756;2023-02-28T19:05:14;6.45;;;5.93;;
15608;SDS011;64278;45.642;13.756;2023-02-28T19:07:40;6.60;;;6.10;;